Flight Track Log - Related Links

Times and Time Zones

All times are in EDT time to prevent confusion due to time zone crossing. See the SWA16 flight status page for this flight to view local times or setup timezone preferences in your user account.

Time Position Orientation Groundspeed Altitude Reporting Facility
EDT Latitude Longitude Course Direction KTS MPH feet Rate Location/Type
Tue 07:34:52 PM 39.8833 -104.5833 72° East 180 207 7,200  Level Denver TRACON
Tue 07:35:53 PM 39.8833 -104.4833 90° East 248 285 8,800 1,438 Climbing Denver TRACON
Tue 07:36:53 PM 39.8833 -104.3833 90° East 295 339 10,100 857 Climbing Denver TRACON
Tue 07:37:17 PM 39.8747 -104.3456 107° East 291 335 10,000 1,605 Descending Denver Center
Tue 07:38:19 PM 39.8633 -104.2311 97° East 300 345 12,400 2,565 Climbing Denver Center
Tue 07:39:21 PM 39.8203 -104.1297 119° Southeast 319 367 15,300 2,371 Climbing Denver Center
Tue 07:40:00 PM 39.8777 -103.7558 72° East  Level FlightAware Approximate
Tue 07:40:23 PM 39.7731 -104.0083 117° Southeast 355 409 17,300  Level Denver Center
Tue 07:41:25 PM 39.7431 -103.8728 106° East 386 444 19,500 2,074 Climbing Denver Center
Tue 07:42:39 PM 39.7358 -103.7272 94° East 401 461 22,000 2,162 Climbing Denver Center
Tue 07:43:41 PM 39.7628 -103.5569 78° East 416 479 24,400 2,081 Climbing Denver Center
Tue 07:44:43 PM 39.8000 -103.3789 75° East 434 499 26,300 2,177 Climbing Denver Center
Tue 07:45:45 PM 39.8208 -103.2194 80° East 441 507 28,900 2,226 Climbing Denver Center
Tue 07:46:47 PM 39.8364 -103.0881 81° East 439 505 30,900 1,742 Climbing Denver Center
Tue 07:47:49 PM 39.8700 -102.9103 76° East 432 497 32,500 1,355 Climbing Denver Center
Tue 07:48:51 PM 39.9050 -102.7567 73° East 438 504 33,700 926 Climbing Denver Center
Tue 07:50:05 PM 39.9333 -102.5944 77° East 449 517 34,600 574 Climbing Denver Center
Tue 07:51:07 PM 39.9744 -102.3892 75° East 461 531 35,000 194 Climbing Denver Center
Tue 07:52:09 PM 40.0044 -102.2339 76° East 461 531 35,000  Level Denver Center
Tue 07:53:11 PM 40.0406 -102.0508 75° East 468 539 35,000  Level Denver Center
Tue 07:54:12 PM 40.0656 -101.9222 76° East 462 532 35,000  Level Denver Center
Tue 07:55:14 PM 40.1047 -101.7097 76° East 472 543 35,000  Level Denver Center
Tue 07:56:16 PM 40.1344 -101.5503 76° East 473 544 35,000  Level Denver Center
Tue 07:57:18 PM 40.1686 -101.3661 76° East 469 540 35,000  Level Denver Center
Tue 07:58:20 PM 40.1975 -101.2083 76° East 468 539 35,000  Level Denver Center
Tue 07:59:23 PM 40.2317 -101.0269 76° East 463 533 35,000  Level Denver Center
Tue 08:00:25 PM 40.2594 -100.8711 77° East 462 532 35,000  Level Denver Center
Tue 08:01:27 PM 40.2917 -100.6908 77° East 459 528 35,000  Level Denver Center
Tue 08:02:29 PM 40.3192 -100.5375 77° East 457 526 35,000 435 Level Denver Center
Tue 08:03:31 PM 40.3511 -100.3583 77° East 455 524 35,900 829 Climbing Denver Center
Tue 08:04:32 PM 40.3772 -100.2042 77° East 455 524 36,700 537 Climbing Denver Center
Tue 08:05:34 PM 40.4089 -100.0197 77° East 465 535 37,000 145 Climbing Denver Center
Tue 08:06:36 PM 40.4367 -99.8550 77° East 469 540 37,000  Level Denver Center
Tue 08:07:38 PM 40.4664 -99.6892 77° East 468 539 37,000  Level Denver Center
Tue 08:08:40 PM 40.4942 -99.5214 78° East 471 542 37,000  Level Denver Center
Tue 08:09:41 PM 40.5222 -99.3550 77° East 469 540 37,000  Level Denver Center
Tue 08:10:43 PM 40.5492 -99.1889 78° East 468 539 37,000  Level Denver Center
Tue 08:11:24 PM 40.5725 -99.0550 77° East 471 542 37,000  Level Minneapolis Center
Tue 08:12:26 PM 40.6003 -98.8881 78° East 471 542 37,000  Level Minneapolis Center
Tue 08:13:28 PM 40.6269 -98.7206 78° East 471 542 37,000  Level Minneapolis Center
Tue 08:14:30 PM 40.6536 -98.5525 78° East 472 543 37,000  Level Minneapolis Center
Tue 08:15:32 PM 40.6853 -98.3514 78° East 471 542 37,000  Level Minneapolis Center
Tue 08:16:34 PM 40.7125 -98.1844 78° East 470 541 37,000  Level Minneapolis Center
Tue 08:17:35 PM 40.7383 -98.0175 78° East 468 539 37,000  Level Minneapolis Center
Tue 08:18:37 PM 40.7636 -97.8489 79° East 469 540 37,000  Level Minneapolis Center
Tue 08:19:39 PM 40.7894 -97.6819 78° East 467 537 37,000  Level Minneapolis Center
Tue 08:20:41 PM 40.8156 -97.5133 78° East 469 540 37,000  Level Minneapolis Center
Tue 08:21:43 PM 40.8414 -97.3411 79° East 468 539 37,000  Level Minneapolis Center
Tue 08:22:45 PM 40.8672 -97.1408 80° East 464 534 37,000  Level Minneapolis Center
Tue 08:23:47 PM 40.8919 -96.9750 79° East 462 532 37,000  Level Minneapolis Center
Tue 08:24:50 PM 40.9192 -96.8086 78° East 463 533 37,000  Level Minneapolis Center
Tue 08:25:52 PM 40.9439 -96.6417 79° East 465 535 37,000  Level Minneapolis Center
Tue 08:26:54 PM 40.9672 -96.4733 80° East 466 536 37,000  Level Minneapolis Center
Tue 08:27:56 PM 40.9908 -96.3058 79° East 467 537 37,000  Level Minneapolis Center
Tue 08:28:58 PM 41.0194 -96.1039 79° East 469 540 37,000  Level Minneapolis Center
Tue 08:30:00 PM 41.0425 -95.9342 80° East 472 543 37,000  Level Minneapolis Center
Tue 08:31:02 PM 41.0656 -95.7661 80° East 471 542 37,000  Level Minneapolis Center
Tue 08:32:04 PM 41.0878 -95.5978 80° East 469 540 37,000  Level Minneapolis Center
Tue 08:33:06 PM 41.1156 -95.3950 80° East 470 541 37,000  Level Minneapolis Center
Tue 08:34:08 PM 41.1378 -95.2269 80° East 466 536 37,000  Level Minneapolis Center
Tue 08:35:10 PM 41.1589 -95.0608 80° East 462 532 37,000  Level Minneapolis Center
Tue 08:36:12 PM 41.1792 -94.8961 81° East 455 524 37,000  Level Minneapolis Center
Tue 08:37:14 PM 41.2000 -94.7322 80° East 453 521 37,000  Level Minneapolis Center
Tue 08:38:16 PM 41.2197 -94.5703 81° East 448 516 37,000  Level Minneapolis Center
Tue 08:39:18 PM 41.2439 -94.3756 81° East 446 513 37,000  Level Minneapolis Center
Tue 08:40:20 PM 41.2631 -94.2128 81° East 446 513 37,000  Level Minneapolis Center
Tue 08:41:22 PM 41.2797 -94.0697 81° East 446 513 37,000  Level Minneapolis Center
Tue 08:42:24 PM 41.3036 -93.8733 81° East 450 518 37,000  Level Minneapolis Center
Tue 08:43:27 PM 41.3236 -93.7083 81° East 453 521 37,000  Level Minneapolis Center
Tue 08:44:29 PM 41.3422 -93.5453 81° East 451 519 37,000  Level Minneapolis Center
Tue 08:45:30 PM 41.3575 -93.4144 81° East 451 519 37,000  Level Minneapolis Center
Tue 08:46:45 PM 41.3800 -93.2203 81° East 447 514 37,000  Level Minneapolis Center
Tue 08:47:47 PM 41.4044 -92.9953 82° East 443 510 37,000  Level Minneapolis Center
Tue 08:48:49 PM 41.4222 -92.8328 82° East 443 510 37,000  Level Minneapolis Center
Tue 08:49:51 PM 41.4411 -92.6708 81° East 444 511 37,000  Level Minneapolis Center
Tue 08:50:53 PM 41.4572 -92.5081 82° East 444 511 37,000  Level Minneapolis Center
Tue 08:51:56 PM 41.4747 -92.3450 82° East 446 513 37,000  Level Minneapolis Center
Tue 08:52:58 PM 41.4947 -92.1497 82° East 445 512 37,000  Level Minneapolis Center
Tue 08:54:00 PM 41.5122 -91.9850 82° East 449 517 37,000  Level Minneapolis Center
Tue 08:55:02 PM 41.5289 -91.8189 82° East 452 520 37,000  Level Minneapolis Center
Tue 08:56:11 PM 41.5469 -91.6214 83° East 465 535 37,000  Level Chicago Center
Tue 08:57:13 PM 41.5633 -91.4614 82° East 451 519 37,000  Level Chicago Center
Tue 08:58:15 PM 41.5781 -91.2992 83° East 449 517 37,000  Level Chicago Center
Tue 08:59:17 PM 41.5975 -91.1039 82° East 448 516 37,000  Level Chicago Center
Tue 09:00:20 PM 41.6117 -90.9417 83° East 447 514 37,000  Level Chicago Center
Tue 09:01:22 PM 41.6269 -90.7781 83° East 448 516 37,000  Level Chicago Center
Tue 09:02:24 PM 41.6414 -90.6153 83° East 448 516 37,000  Level Chicago Center
Tue 09:03:26 PM 41.6592 -90.4200 83° East 445 512 37,000  Level Chicago Center
Tue 09:04:28 PM 41.6722 -90.2586 84° East 444 511 37,000  Level Chicago Center
Tue 09:05:30 PM 41.6844 -90.0975 84° East 442 509 37,000  Level Chicago Center
Tue 09:06:32 PM 41.6983 -89.9364 83° East 443 510 37,000  Level Chicago Center
Tue 09:07:34 PM 41.7117 -89.7683 84° East 440 506 37,000  Level Chicago Center
Tue 09:08:36 PM 41.7247 -89.6064 84° East 440 506 37,000  Level Chicago Center
Tue 09:09:38 PM 41.7397 -89.4117 84° East 441 507 37,000  Level Chicago Center
Tue 09:10:40 PM 41.7531 -89.2503 84° East 441 507 37,000  Level Chicago Center
Tue 09:11:42 PM 41.7647 -89.0881 84° East 440 506 37,000  Level Chicago Center
Tue 09:12:44 PM 41.7764 -88.9275 84° East 436 502 37,000  Level Chicago Center
Tue 09:13:46 PM 41.7894 -88.7650 84° East 439 505 37,000  Level Chicago Center
Tue 09:14:48 PM 41.8003 -88.6039 85° East 436 502 37,000  Level Chicago Center
Tue 09:15:50 PM 41.8142 -88.4108 84° East 436 502 37,000  Level Chicago Center
Tue 09:16:51 PM 41.8247 -88.2511 85° East 430 495 37,000  Level Chicago Center
Tue 09:17:53 PM 41.8353 -88.0900 85° East 431 496 37,000  Level Chicago Center
Tue 09:18:55 PM 41.8461 -87.9300 85° East 430 495 37,000  Level Chicago Center
Tue 09:19:57 PM 41.8567 -87.7689 85° East 433 498 37,000  Level Chicago Center
Tue 09:20:59 PM 41.8669 -87.6086 85° East 430 495 37,000  Level Chicago Center
Tue 09:22:01 PM 41.8764 -87.4486 85° East 432 497 37,000  Level Chicago Center
Tue 09:23:02 PM 41.8875 -87.2561 86° East 431 496 37,000 634 Level Chicago Center
Tue 09:24:04 PM 41.8967 -87.0969 86° East 429 494 38,300 968 Climbing Chicago Center
Tue 09:25:06 PM 41.9053 -86.9400 86° East 424 488 39,000 341 Climbing Chicago Center
Tue 09:26:07 PM 41.9142 -86.7836 86° East 421 484 39,000  Level Chicago Center
Tue 09:27:09 PM 41.9233 -86.6172 86° East 420 483 39,000  Level Chicago Center
Tue 09:28:11 PM 41.9314 -86.4611 86° East 420 483 39,000  Level Chicago Center
Tue 09:29:12 PM 41.9394 -86.3044 86° East 421 484 39,000  Level Chicago Center
Tue 09:30:14 PM 41.9472 -86.1483 86° East 417 480 39,000  Level Chicago Center
Tue 09:31:16 PM 41.9544 -85.9925 86° East 418 481 39,000  Level Chicago Center
Tue 09:32:17 PM 41.9619 -85.8356 86° East 419 482 39,000  Level Chicago Center
Tue 09:33:19 PM 41.9714 -85.6467 86° East 420 483 39,000  Level Chicago Center
Tue 09:34:20 PM 41.9786 -85.4867 86° East 425 489 39,000  Level Chicago Center
Tue 09:35:22 PM 41.9858 -85.3253 87° East 429 494 39,000  Level Chicago Center
Tue 09:35:57 PM 41.9931 -85.2272 84° East 418 481 39,000  Level Cleveland Center
Tue 09:36:57 PM 41.9994 -85.0683 87° East 418 481 39,000  Level Cleveland Center
Tue 09:37:57 PM 42.0056 -84.9122 87° East 418 481 39,000  Level Cleveland Center
Tue 09:38:57 PM 42.0114 -84.7533 87° East 418 481 39,000  Level Cleveland Center
Tue 09:39:57 PM 42.0147 -84.5997 88° East 418 481 39,000  Level Cleveland Center
Tue 09:40:57 PM 42.0222 -84.4408 86° East 418 481 39,000  Level Cleveland Center
Tue 09:41:57 PM 42.0253 -84.2872 88° East 418 481 39,000  Level Cleveland Center
Tue 09:42:57 PM 42.0253 -84.1500 90° East 411 473 39,000  Level Cleveland Center
Tue 09:43:57 PM 42.0364 -83.9914 85° East 411 473 39,000  Level Cleveland Center
Tue 09:44:57 PM 42.0533 -83.8411 81° East 406 467 39,000  Level Cleveland Center
Tue 09:45:57 PM 42.0700 -83.6908 81° East 406 467 39,000  Level Cleveland Center
Tue 09:46:57 PM 42.0911 -83.5183 81° East 417 480 39,000  Level Cleveland Center
Tue 09:47:57 PM 42.1075 -83.3681 82° East 417 480 39,000  Level Cleveland Center
Tue 09:48:57 PM 42.1236 -83.2119 82° East 417 480 39,000  Level Cleveland Center
Tue 09:49:57 PM 42.1394 -83.0725 81° East 417 480 39,000  Level Cleveland Center
Tue 09:50:57 PM 42.1550 -82.9219 82° East 412 474 39,000  Level Cleveland Center
Tue 09:51:57 PM 42.1706 -82.7711 82° East 406 467 39,000  Level Cleveland Center
Tue 09:52:57 PM 42.1858 -82.6206 82° East 406 467 39,000  Level Cleveland Center
Tue 09:53:57 PM 42.2053 -82.4528 81° East 412 474 39,000  Level Cleveland Center
Tue 09:54:57 PM 42.2181 -82.3019 83° East 412 474 39,000  Level Cleveland Center
Tue 09:55:57 PM 42.2328 -82.1508 82° East 406 467 39,000  Level Cleveland Center
Tue 09:56:57 PM 42.2492 -82.0167 81° East 406 467 39,000  Level Cleveland Center
Tue 09:57:57 PM 42.2633 -81.8653 83° East 406 467 39,000  Level Cleveland Center
Tue 09:58:57 PM 42.2775 -81.7083 83° East 412 474 39,000  Level Cleveland Center
Tue 09:59:57 PM 42.2936 -81.5431 82° East 412 474 39,000  Level Cleveland Center
Tue 10:00:57 PM 42.3094 -81.3917 82° East 407 468 39,000  Level Cleveland Center
Tue 10:01:57 PM 42.3228 -81.2375 83° East 407 468 39,000  Level Cleveland Center
Tue 10:02:57 PM 42.3361 -81.0831 83° East 407 468 39,000  Level Cleveland Center
Tue 10:03:57 PM 42.3492 -80.9258 84° East 407 468 39,000  Level Cleveland Center
Tue 10:04:57 PM 42.3619 -80.7742 83° East 407 468 39,000  Level Cleveland Center
Tue 10:05:57 PM 42.3769 -80.6225 82° East 407 468 39,000  Level Cleveland Center
Tue 10:06:57 PM 42.3872 -80.4847 84° East 407 468 39,000  Level Cleveland Center
Tue 10:07:57 PM 42.3994 -80.3331 84° East 407 468 39,000  Level Cleveland Center
Tue 10:08:57 PM 42.4117 -80.1811 84° East 407 468 39,000  Level Cleveland Center
Tue 10:09:57 PM 42.4256 -80.0264 83° East 407 468 39,000  Level Cleveland Center
Tue 10:10:57 PM 42.4372 -79.8742 84° East 407 468 39,000  Level Cleveland Center
Tue 10:11:57 PM 42.4486 -79.7194 84° East 407 468 39,000  Level Cleveland Center
Tue 10:12:57 PM 42.4600 -79.5617 84° East 407 468 39,000  Level Cleveland Center
Tue 10:13:57 PM 42.4750 -79.4064 82° East 413 475 39,000  Level Cleveland Center
Tue 10:14:57 PM 42.4858 -79.2486 85° East 413 475 39,000  Level Cleveland Center
Tue 10:15:57 PM 42.4964 -79.0908 85° East 418 481 39,000  Level Cleveland Center
Tue 10:16:57 PM 42.5069 -78.9356 85° East 418 481 39,000  Level Cleveland Center
Tue 10:17:57 PM 42.5169 -78.7803 85° East 418 481 39,000  Level Cleveland Center
Tue 10:18:57 PM 42.5269 -78.6250 85° East 418 481 39,000  Level Cleveland Center
Tue 10:19:57 PM 42.5389 -78.4669 84° East 418 481 39,000  Level Cleveland Center
Tue 10:20:57 PM 42.5483 -78.3117 85° East 418 481 39,000  Level Cleveland Center
Tue 10:21:57 PM 42.5578 -78.1561 85° East 413 475 39,000  Level Cleveland Center
Tue 10:22:57 PM 42.5669 -78.0036 85° East 407 468 39,000  Level Cleveland Center
Tue 10:23:57 PM 42.5758 -77.8508 85° East 407 468 39,000  Level Cleveland Center
Tue 10:27:03 PM 42.6047 -77.3550 85° East 402 463 39,000  Level Boston Center
Tue 10:28:03 PM 42.6131 -77.2033 86° East 405 466 39,000  Level Boston Center
Tue 10:29:03 PM 42.6217 -77.0486 86° East 391 450 39,000  Level Boston Center
Tue 10:30:03 PM 42.6297 -76.8967 86° East 398 458 39,000  Level Boston Center
Tue 10:31:03 PM 42.6381 -76.7392 86° East 403 464 39,000  Level Boston Center
Tue 10:32:03 PM 42.6458 -76.5872 86° East 408 470 39,000  Level Boston Center
Tue 10:33:03 PM 42.6533 -76.4325 86° East 408 470 39,000  Level Boston Center
Tue 10:34:03 PM 42.6608 -76.2775 86° East 403 464 39,000  Level Boston Center
Tue 10:35:03 PM 42.6675 -76.1394 86° East 403 464 39,000  Level Boston Center
Tue 10:36:03 PM 42.6747 -75.9789 86° East 403 464 39,000  Level Boston Center
Tue 10:37:03 PM 42.6814 -75.8239 87° East 403 464 39,000 -250 Level Boston Center
Tue 10:38:03 PM 42.6858 -75.6717 88° East 403 464 38,500 -700 Descending Boston Center
Tue 10:39:03 PM 42.6925 -75.5108 87° East 403 464 37,600 -950 Descending Boston Center
Tue 10:40:03 PM 42.7006 -75.3558 86° East 403 464 36,600 -950 Descending Boston Center
Tue 10:41:03 PM 42.7047 -75.1978 88° East 408 470 35,700 -950 Descending Boston Center
Tue 10:42:03 PM 42.7106 -75.0342 87° East 420 483 34,700 -1,850 Descending Boston Center
Tue 10:43:03 PM 42.7164 -74.8675 87° East 420 483 32,000 -2,800 Descending Boston Center
Tue 10:44:03 PM 42.7217 -74.7067 87° East 420 483 29,100 -1,500 Descending Boston Center
Tue 10:45:03 PM 42.7250 -74.5344 88° East 435 501 29,000 -250 Descending Boston Center
Tue 10:46:03 PM 42.7322 -74.3650 87° East 441 507 28,600 -700 Descending Boston Center
Tue 10:47:03 PM 42.7369 -74.2011 88° East 441 507 27,600 -1,050 Descending Boston Center
Tue 10:48:03 PM 42.7394 -74.0372 89° East 436 502 26,500 -1,050 Descending Boston Center
Tue 10:49:03 PM 42.7456 -73.8764 87° East 436 502 25,500 -909 Descending Boston Center
Tue 10:50:15 PM 42.7517 -73.7181 87° East 424 488 24,500 -1,000 Descending Boston Center
Tue 10:51:15 PM 42.7600 -73.5317 86° East 413 475 23,300 -1,000 Descending Boston Center
Tue 10:52:27 PM 42.7653 -73.3819 87° East 413 475 22,300 -1,000 Descending Boston Center
Tue 10:53:27 PM 42.7708 -73.1953 88° East 403 464 21,100 -1,100 Descending Boston Center
Tue 10:54:27 PM 42.7761 -73.0453 87° East 398 458 20,100 -1,050 Descending Boston Center
Tue 10:55:27 PM 42.7808 -72.8983 87° East 398 458 19,000 -1,050 Descending Boston Center
Tue 10:56:27 PM 42.7833 -72.7542 89° East 388 447 18,000 -900 Descending Boston Center
Tue 10:57:27 PM 42.7878 -72.6128 87° East 381 438 17,200 -900 Descending Boston Center
Tue 10:58:27 PM 42.7900 -72.4769 89° East 370 426 16,200 -1,550 Descending Boston Center
Tue 10:59:27 PM 42.7942 -72.3383 88° East 364 419 14,100 -2,150 Descending Boston Center
Tue 11:00:27 PM 42.8003 -72.2053 86° East 359 413 11,900 -1,850 Descending Boston Center
Tue 11:01:27 PM 42.8269 -72.0750 74° East 335 386 10,400 -1,150 Descending Boston Center
Tue 11:02:27 PM 42.8600 -71.9897 62° Northeast 297 342 9,600 -1,350 Descending Boston Center
Tue 11:03:27 PM 42.8972 -71.8847 64° Northeast 268 308 7,700 -1,900 Descending Boston Center
Tue 11:04:27 PM 42.9281 -71.8050 62° Northeast 261 300 5,800 -1,700 Descending Boston Center
Tue 11:05:27 PM 42.9628 -71.7108 63° Northeast 261 300 4,300 -1,200 Descending Boston Center
Tue 11:06:27 PM 42.9894 -71.6397 63° Northeast 242 278 3,400 -800 Descending Boston Center
Tue 11:07:27 PM 43.0078 -71.5742 69° East 216 249 2,700 -850 Descending Boston Center
Tue 11:08:27 PM 43.0072 -71.4947 91° East 193 222 1,700 -850 Descending Boston Center
Tue 11:09:27 PM 42.9778 -71.4611 140° Southeast 143 165 1,000 -650 Descending Boston Center
Tue 11:10:27 PM 42.9483 -71.4444 157° South 130 150 400 -350 Descending Boston Center
Tue 11:11:27 PM 42.9147 -71.4167 149° Southeast 130 150 300 4,300 Descending Boston Center
Tue 11:12:27 PM 42.8833 -71.3975 156° South 130 150 9,000 8,700 Climbing Boston Center

Login

Don't have an account? Register now (free) for customized features, flight alerts, and more!